createdAt,value
2022-12-26T00:01:29.275Z,27.00
2022-12-26T00:03:58.573Z,21.87
2022-12-26T00:06:29.205Z,23.77
2022-12-26T00:09:00.412Z,25.70
2022-12-26T00:11:29.580Z,25.00
2022-12-26T00:14:00.262Z,21.43
2022-12-26T00:16:30.068Z,26.03
2022-12-26T00:18:58.879Z,22.53
2022-12-26T00:21:29.220Z,23.33
2022-12-26T00:24:00.865Z,22.13
2022-12-26T00:26:31.572Z,21.90
2022-12-26T00:29:00.514Z,29.27
2022-12-26T00:31:32.088Z,28.03
2022-12-26T00:34:01.264Z,31.03
2022-12-26T00:36:32.069Z,19.77
2022-12-26T00:39:03.748Z,29.97
2022-12-26T00:41:32.829Z,23.10
2022-12-26T00:44:01.582Z,28.20
2022-12-26T00:46:30.535Z,23.77
2022-12-26T00:48:59.249Z,26.10
2022-12-26T00:51:28.504Z,27.20
2022-12-26T00:53:57.398Z,33.90
2022-12-26T00:56:27.449Z,38.57
2022-12-26T00:58:56.226Z,29.00
2022-12-26T01:01:25.204Z,34.10
2022-12-26T01:03:54.088Z,34.50
2022-12-26T01:06:22.815Z,29.83
2022-12-26T01:08:51.415Z,32.90
2022-12-26T01:11:40.370Z,31.13
2022-12-26T01:14:12.700Z,35.13
2022-12-26T01:16:43.021Z,39.67
2022-12-26T01:19:12.882Z,32.87
2022-12-26T01:21:43.236Z,43.00
2022-12-26T01:24:13.040Z,39.30
2022-12-26T01:26:41.848Z,35.57
2022-12-26T01:29:11.843Z,36.97
2022-12-26T01:31:40.535Z,38.43
2022-12-26T01:34:09.722Z,35.43
2022-12-26T01:36:38.374Z,32.47
2022-12-26T01:39:07.010Z,37.30
2022-12-26T01:41:35.655Z,35.77
2022-12-26T01:44:06.642Z,32.07
2022-12-26T01:46:40.701Z,40.33
2022-12-26T01:49:14.651Z,37.43
2022-12-26T01:51:47.606Z,31.10
2022-12-26T01:54:40.572Z,39.77
2022-12-26T01:57:07.795Z,37.90
2022-12-26T01:59:39.943Z,39.47
2022-12-26T02:02:10.772Z,35.07
2022-12-26T02:05:02.566Z,34.17
2022-12-26T02:07:33.030Z,28.80
2022-12-26T02:10:01.998Z,44.43
2022-12-26T02:12:36.989Z,37.10
2022-12-26T02:15:10.008Z,32.60
2022-12-26T02:17:41.288Z,30.50
2022-12-26T02:20:20.007Z,28.77
2022-12-26T02:23:25.212Z,32.83
2022-12-26T02:26:35.347Z,26.97
2022-12-26T02:33:22.745Z,29.23
2022-12-26T02:36:11.077Z,32.83
2022-12-26T02:38:47.665Z,28.77
2022-12-26T02:41:26.097Z,28.03
2022-12-26T02:44:23.904Z,29.00
2022-12-26T02:47:06.042Z,33.53
2022-12-26T02:50:09.113Z,30.50
2022-12-26T02:53:05.777Z,33.97
2022-12-26T02:55:56.318Z,30.00
2022-12-26T02:58:44.724Z,31.57
2022-12-26T03:01:39.355Z,40.67
2022-12-26T03:04:31.039Z,37.57
2022-12-26T03:07:21.523Z,35.03
2022-12-26T03:10:10.813Z,28.53
2022-12-26T03:13:01.191Z,31.07
2022-12-26T03:15:53.381Z,36.13
2022-12-26T03:18:56.884Z,33.67
2022-12-26T03:21:13.011Z,34.63
2022-12-26T03:23:44.121Z,28.83
2022-12-26T03:26:37.566Z,39.27
2022-12-26T03:29:23.945Z,38.77
2022-12-26T03:31:52.701Z,37.90
2022-12-26T03:34:20.808Z,37.60
2022-12-26T03:37:17.844Z,39.83
2022-12-26T03:40:12.586Z,35.83
2022-12-26T03:43:07.535Z,33.00
2022-12-26T03:46:03.189Z,31.03
2022-12-26T03:48:55.836Z,28.47
2022-12-26T03:51:49.465Z,30.77
2022-12-26T03:54:43.318Z,32.27
2022-12-26T03:57:34.857Z,34.30
2022-12-26T04:00:26.888Z,30.87
2022-12-26T04:03:17.866Z,32.27
2022-12-26T04:06:06.909Z,37.43
2022-12-26T04:09:00.980Z,42.97
2022-12-26T04:11:47.530Z,32.00
2022-12-26T04:14:43.309Z,39.50
2022-12-26T04:17:38.765Z,28.03
2022-12-26T04:20:15.188Z,32.07
2022-12-26T04:23:08.794Z,32.43
2022-12-26T04:26:02.910Z,33.13
2022-12-26T04:28:48.967Z,36.30
2022-12-26T04:31:39.362Z,29.03
2022-12-26T04:34:32.568Z,36.63
2022-12-26T04:37:25.796Z,32.77
2022-12-26T04:40:14.711Z,36.27
2022-12-26T04:43:48.433Z,30.00
2022-12-26T04:45:52.282Z,37.87
2022-12-26T04:48:38.388Z,33.50
2022-12-26T04:51:08.598Z,37.67
2022-12-26T04:53:37.492Z,38.07
2022-12-26T04:56:06.571Z,31.93
2022-12-26T04:58:35.214Z,29.87
2022-12-26T05:01:18.047Z,37.07
2022-12-26T05:04:03.919Z,30.37
2022-12-26T05:06:51.486Z,30.43
2022-12-26T05:09:36.689Z,33.93
2022-12-26T05:12:08.244Z,27.23
2022-12-26T05:14:37.531Z,29.67
2022-12-26T05:17:25.335Z,32.67
2022-12-26T05:20:11.923Z,34.57
2022-12-26T05:23:02.677Z,34.60
2022-12-26T05:25:52.096Z,35.20
2022-12-26T05:28:39.007Z,33.67
2022-12-26T05:31:07.665Z,40.87
2022-12-26T05:33:53.645Z,36.00
2022-12-26T05:36:24.481Z,38.40
2022-12-26T05:38:56.244Z,36.20
2022-12-26T05:41:25.366Z,31.17
2022-12-26T05:43:54.075Z,34.27
2022-12-26T05:46:22.765Z,35.80
2022-12-26T05:48:51.604Z,39.70
2022-12-26T05:51:20.300Z,31.40
2022-12-26T05:53:49.498Z,33.53
2022-12-26T05:56:20.547Z,33.67
2022-12-26T05:58:49.221Z,34.07
2022-12-26T06:01:19.845Z,26.47
2022-12-26T06:03:50.025Z,28.80
2022-12-26T06:06:19.681Z,25.13
2022-12-26T06:08:49.503Z,29.40
2022-12-26T06:11:20.601Z,31.83
2022-12-26T06:13:49.206Z,27.70
2022-12-26T06:16:19.810Z,26.30
2022-12-26T06:18:49.903Z,20.47
2022-12-26T06:21:20.508Z,21.50
2022-12-26T06:23:49.559Z,26.27
2022-12-26T06:26:19.747Z,27.03
2022-12-26T06:28:48.552Z,22.70
2022-12-26T06:31:20.858Z,26.07
2022-12-26T06:33:50.688Z,29.00
2022-12-26T06:36:22.413Z,23.90
2022-12-26T06:38:51.619Z,23.80
2022-12-26T06:41:23.392Z,31.50
2022-12-26T06:43:52.451Z,20.43
2022-12-26T06:46:23.015Z,18.80
2022-12-26T06:48:52.374Z,18.20
2022-12-26T06:51:22.793Z,17.67
2022-12-26T06:53:52.494Z,17.30
2022-12-26T06:56:28.366Z,30.27
2022-12-26T06:59:00.981Z,31.03
2022-12-26T07:01:31.294Z,18.23
2022-12-26T07:04:01.165Z,22.50
2022-12-26T07:06:32.302Z,24.40
2022-12-26T07:09:03.237Z,24.53
2022-12-26T07:11:35.044Z,18.00
2022-12-26T07:14:04.616Z,23.57
2022-12-26T07:16:35.685Z,21.60
2022-12-26T07:19:04.675Z,25.67
2022-12-26T07:21:39.763Z,25.23
2022-12-26T07:24:14.705Z,22.40
2022-12-26T07:26:44.895Z,26.57
2022-12-26T07:29:14.104Z,27.60
2022-12-26T07:31:43.366Z,26.67
2022-12-26T07:34:12.034Z,21.33
2022-12-26T07:36:41.141Z,19.50
2022-12-26T07:39:10.020Z,23.57
2022-12-26T07:41:55.523Z,18.80
2022-12-26T07:44:25.718Z,19.77
2022-12-26T07:46:54.501Z,22.93
2022-12-26T07:49:23.279Z,21.70
2022-12-26T07:51:52.620Z,19.13
2022-12-26T07:54:21.691Z,21.30
2022-12-26T07:56:50.345Z,16.47
2022-12-26T07:59:19.542Z,24.47
2022-12-26T08:01:49.961Z,17.20
2022-12-26T08:04:18.689Z,15.50
2022-12-26T08:06:47.762Z,17.33
2022-12-26T08:09:21.905Z,16.23
2022-12-26T08:11:51.584Z,18.87
2022-12-26T08:14:22.308Z,21.30
2022-12-26T08:16:53.799Z,14.93
2022-12-26T08:19:22.530Z,14.97
2022-12-26T08:21:51.456Z,16.57
2022-12-26T08:24:20.311Z,16.53
2022-12-26T08:26:49.088Z,22.03
2022-12-26T08:29:17.693Z,19.50
2022-12-26T08:31:46.456Z,19.00
2022-12-26T08:34:16.524Z,22.37
2022-12-26T08:36:45.183Z,20.37
2022-12-26T08:39:13.790Z,21.87
2022-12-26T08:41:42.501Z,15.00
2022-12-26T08:44:29.039Z,26.67
2022-12-26T08:46:58.512Z,18.07
2022-12-26T08:49:28.568Z,15.57
2022-12-26T08:51:57.320Z,16.93
2022-12-26T08:54:25.942Z,18.00
2022-12-26T08:56:54.550Z,17.13
2022-12-26T08:59:23.304Z,12.23
2022-12-26T09:01:52.050Z,16.73
2022-12-26T09:04:20.807Z,13.70
2022-12-26T09:06:51.315Z,11.03
2022-12-26T09:09:19.944Z,14.03
2022-12-26T09:11:48.566Z,14.57
2022-12-26T09:14:17.211Z,14.80
2022-12-26T09:16:51.089Z,15.13
2022-12-26T09:19:21.088Z,13.27
2022-12-26T09:22:13.095Z,21.47
2022-12-26T09:24:41.864Z,15.77
2022-12-26T09:27:11.211Z,18.60
2022-12-26T09:29:40.092Z,15.37
2022-12-26T09:32:08.801Z,12.73
2022-12-26T09:34:37.497Z,16.17
2022-12-26T09:37:07.498Z,21.73
2022-12-26T09:39:36.777Z,18.10
2022-12-26T09:42:17.264Z,16.53
2022-12-26T09:44:54.652Z,13.00
2022-12-26T09:47:34.904Z,12.33
2022-12-26T09:50:12.139Z,22.67
2022-12-26T09:52:49.932Z,17.67
2022-12-26T09:55:30.746Z,13.90
2022-12-26T09:58:06.383Z,18.40
2022-12-26T10:00:40.346Z,15.27
2022-12-26T10:03:11.027Z,16.00
2022-12-26T10:05:45.473Z,12.53
2022-12-26T10:08:26.985Z,13.50
2022-12-26T10:11:02.212Z,11.33
2022-12-26T10:13:38.530Z,12.07
2022-12-26T10:16:12.529Z,18.57
2022-12-26T10:19:01.616Z,13.10
2022-12-26T10:21:40.798Z,9.87
2022-12-26T10:24:17.010Z,17.93
2022-12-26T10:26:50.673Z,12.93
2022-12-26T10:29:25.723Z,16.87
2022-12-26T10:31:58.035Z,13.77
2022-12-26T10:34:30.676Z,10.27
2022-12-26T10:37:02.422Z,12.47
2022-12-26T10:39:38.003Z,16.57
2022-12-26T10:42:14.304Z,16.70
2022-12-26T10:44:42.995Z,24.47
2022-12-26T10:47:23.132Z,20.80
2022-12-26T10:49:54.040Z,23.03
2022-12-26T10:52:28.896Z,16.37
2022-12-26T10:55:28.627Z,16.40
2022-12-26T10:57:52.530Z,19.07
2022-12-26T11:00:23.620Z,18.23
2022-12-26T11:03:07.649Z,14.60
2022-12-26T11:06:06.474Z,16.17
2022-12-26T11:08:36.233Z,9.97
2022-12-26T11:11:13.059Z,15.20
2022-12-26T11:13:47.901Z,15.97
2022-12-26T11:16:26.779Z,12.23
2022-12-26T11:18:56.047Z,14.67
2022-12-26T11:21:26.351Z,8.90
2022-12-26T11:24:17.084Z,10.60
2022-12-26T11:26:49.440Z,16.60
2022-12-26T11:29:20.992Z,16.87
2022-12-26T11:31:54.801Z,17.10
2022-12-26T11:34:32.775Z,8.20
2022-12-26T11:37:02.149Z,16.70
2022-12-26T11:39:33.733Z,11.53
2022-12-26T11:42:11.086Z,16.27
2022-12-26T11:44:45.443Z,9.50
2022-12-26T11:47:16.219Z,10.40
2022-12-26T11:49:53.442Z,10.70
2022-12-26T11:52:39.555Z,12.73
2022-12-26T11:55:37.326Z,17.17
2022-12-26T11:58:20.952Z,14.63
2022-12-26T12:01:17.916Z,10.77
2022-12-26T12:03:49.849Z,10.67
2022-12-26T12:06:34.746Z,18.03
2022-12-26T12:09:10.984Z,12.57
2022-12-26T12:11:47.046Z,14.37
2022-12-26T12:14:32.636Z,12.47
2022-12-26T12:17:13.245Z,12.00
2022-12-26T12:19:53.648Z,14.53
2022-12-26T12:22:50.801Z,13.13
2022-12-26T12:25:33.209Z,10.77
2022-12-26T12:28:11.711Z,10.23
2022-12-26T12:30:49.514Z,15.47
2022-12-26T12:33:36.595Z,11.60
2022-12-26T12:36:11.019Z,8.47
2022-12-26T12:39:02.574Z,12.20
2022-12-26T12:42:07.478Z,10.03
2022-12-26T12:44:56.591Z,14.20
2022-12-26T12:47:40.990Z,12.50
2022-12-26T12:50:19.744Z,16.37
2022-12-26T12:52:56.901Z,9.63
2022-12-26T12:55:40.793Z,12.20
2022-12-26T12:58:18.934Z,9.37
2022-12-26T13:00:53.060Z,18.03
2022-12-26T13:03:29.241Z,12.37
2022-12-26T13:06:05.883Z,9.40
2022-12-26T13:08:38.647Z,10.37
2022-12-26T13:11:12.072Z,27.63
2022-12-26T13:13:48.619Z,12.30
2022-12-26T13:16:26.654Z,12.50
2022-12-26T13:19:00.856Z,15.27
2022-12-26T13:21:32.628Z,10.83
2022-12-26T13:24:23.959Z,17.40
2022-12-26T13:26:59.235Z,7.43
2022-12-26T13:29:37.025Z,9.10
2022-12-26T13:32:15.927Z,14.53
2022-12-26T13:34:46.647Z,16.37
2022-12-26T13:37:48.657Z,12.53
2022-12-26T13:40:19.287Z,18.33
2022-12-26T13:43:09.806Z,14.40
2022-12-26T13:45:59.409Z,9.07
2022-12-26T13:49:08.212Z,8.43
2022-12-26T13:51:47.480Z,16.60
2022-12-26T13:54:17.665Z,16.57
2022-12-26T13:57:24.681Z,10.80
2022-12-26T14:00:05.251Z,15.90
2022-12-26T14:03:22.194Z,12.27
2022-12-26T14:06:14.442Z,11.80
2022-12-26T14:08:58.164Z,12.23
2022-12-26T14:11:44.093Z,14.73
2022-12-26T14:14:24.810Z,31.53
2022-12-26T14:17:00.128Z,11.60
2022-12-26T14:19:43.770Z,9.47
2022-12-26T14:22:19.231Z,15.20
2022-12-26T14:25:01.570Z,10.33
2022-12-26T14:27:36.600Z,11.20
2022-12-26T14:30:22.554Z,12.50
2022-12-26T14:33:11.381Z,11.43
2022-12-26T14:35:54.185Z,15.43
2022-12-26T14:38:33.363Z,18.27
2022-12-26T14:41:06.923Z,13.57
2022-12-26T14:43:37.425Z,17.43
2022-12-26T14:46:31.128Z,10.33
2022-12-26T14:49:01.283Z,12.80
2022-12-26T14:51:41.225Z,16.27
2022-12-26T14:54:36.190Z,14.23
2022-12-26T14:57:37.914Z,12.37
2022-12-26T15:00:27.984Z,15.27
2022-12-26T15:03:37.123Z,11.53
2022-12-26T15:06:51.564Z,15.43
2022-12-26T15:10:03.133Z,20.97
2022-12-26T15:13:07.035Z,10.53
2022-12-26T15:15:48.076Z,16.43
2022-12-26T15:18:59.272Z,20.63
2022-12-26T15:21:54.280Z,13.27
2022-12-26T15:28:15.883Z,13.33
2022-12-26T15:31:12.763Z,12.47
2022-12-26T15:33:47.764Z,20.13
2022-12-26T15:36:23.831Z,18.97
2022-12-26T15:38:59.660Z,12.37
2022-12-26T15:41:36.685Z,17.90
2022-12-26T15:44:18.872Z,17.57
2022-12-26T15:46:54.756Z,14.77
2022-12-26T15:49:45.128Z,21.00
2022-12-26T15:52:23.573Z,23.90
2022-12-26T15:55:31.526Z,18.37
2022-12-26T15:58:07.141Z,17.70
2022-12-26T16:00:39.484Z,17.57
2022-12-26T16:03:23.503Z,13.80
2022-12-26T16:06:00.305Z,12.33
2022-12-26T16:08:59.494Z,13.37
2022-12-26T16:11:32.101Z,14.03
2022-12-26T16:14:03.458Z,23.33
2022-12-26T16:16:35.241Z,10.23
2022-12-26T16:19:18.613Z,12.57
2022-12-26T16:22:08.921Z,17.57
2022-12-26T16:24:40.393Z,18.87
2022-12-26T16:27:10.817Z,18.50
2022-12-26T16:29:51.103Z,16.63
2022-12-26T16:32:22.034Z,10.70
2022-12-26T16:34:52.326Z,14.97
2022-12-26T16:37:24.443Z,15.57
2022-12-26T16:40:18.100Z,11.10
2022-12-26T16:42:58.682Z,16.77
2022-12-26T16:45:30.094Z,10.43
2022-12-26T16:47:59.522Z,17.33
2022-12-26T16:50:32.949Z,16.03
2022-12-26T16:53:14.435Z,14.50
2022-12-26T16:55:46.069Z,18.50
2022-12-26T16:58:19.620Z,12.03
2022-12-26T17:01:04.600Z,11.63
2022-12-26T17:03:45.137Z,13.57
2022-12-26T17:06:18.300Z,9.97
2022-12-26T17:08:50.609Z,16.43
2022-12-26T17:11:27.019Z,14.03
2022-12-26T17:13:56.701Z,13.63
2022-12-26T17:16:27.483Z,19.70
2022-12-26T17:18:57.668Z,11.70
2022-12-26T17:21:32.360Z,12.50
2022-12-26T17:24:31.375Z,14.77
2022-12-26T17:27:23.452Z,12.70
2022-12-26T17:29:56.565Z,7.83
2022-12-26T17:32:36.527Z,15.73
2022-12-26T17:35:08.557Z,14.73
2022-12-26T17:37:38.777Z,17.10
2022-12-26T17:40:21.081Z,21.60
2022-12-26T17:42:52.215Z,19.73
2022-12-26T17:45:23.400Z,19.53
2022-12-26T17:47:52.889Z,17.17
2022-12-26T17:50:22.811Z,17.37
2022-12-26T17:52:53.055Z,16.30
2022-12-26T17:55:27.055Z,20.07
2022-12-26T17:57:55.828Z,21.80
2022-12-26T18:00:26.998Z,23.20
2022-12-26T18:02:56.400Z,19.40
2022-12-26T18:05:25.193Z,21.70
2022-12-26T18:07:57.055Z,12.87
2022-12-26T18:10:28.656Z,17.00
2022-12-26T18:12:58.145Z,24.57
2022-12-26T18:15:28.545Z,25.47
2022-12-26T18:17:58.273Z,14.40
2022-12-26T18:20:29.946Z,19.90
2022-12-26T18:23:00.215Z,21.17
2022-12-26T18:25:28.947Z,16.60
2022-12-26T18:27:57.825Z,19.43
2022-12-26T18:30:27.872Z,19.57
2022-12-26T18:32:56.781Z,24.60
2022-12-26T18:35:25.631Z,15.33
2022-12-26T18:37:54.854Z,17.30
2022-12-26T18:40:32.882Z,10.43
2022-12-26T18:43:01.954Z,17.03
2022-12-26T18:45:31.426Z,21.40
2022-12-26T18:48:00.490Z,14.90
2022-12-26T18:50:31.202Z,19.37
2022-12-26T18:52:59.970Z,14.23
2022-12-26T18:55:30.030Z,15.83
2022-12-26T18:58:01.304Z,17.43
2022-12-26T19:00:30.238Z,16.37
2022-12-26T19:02:59.284Z,13.33
2022-12-26T19:05:30.895Z,24.77
2022-12-26T19:08:00.433Z,12.30
2022-12-26T19:10:35.110Z,20.97
2022-12-26T19:13:06.339Z,18.13
2022-12-26T19:15:36.320Z,18.40
2022-12-26T19:18:05.657Z,20.50
2022-12-26T19:20:40.478Z,15.03
2022-12-26T19:24:07.176Z,18.00
2022-12-26T19:26:39.238Z,15.80
2022-12-26T19:29:07.876Z,18.37
2022-12-26T19:31:36.509Z,15.63
2022-12-26T19:34:25.853Z,17.10
2022-12-26T19:36:56.827Z,8.93
2022-12-26T19:39:25.778Z,14.20
2022-12-26T19:41:56.020Z,17.73
2022-12-26T19:44:24.620Z,16.83
2022-12-26T19:47:12.110Z,8.47
2022-12-26T19:49:41.762Z,13.23
2022-12-26T19:52:11.102Z,13.93
2022-12-26T19:54:39.929Z,10.20
2022-12-26T19:57:10.113Z,12.30
2022-12-26T19:59:38.727Z,11.93
2022-12-26T20:02:07.535Z,14.13
2022-12-26T20:04:36.258Z,17.90
2022-12-26T20:07:04.906Z,15.47
2022-12-26T20:09:33.607Z,18.70
2022-12-26T20:12:03.010Z,9.37
2022-12-26T20:14:33.541Z,14.97
2022-12-26T20:17:05.556Z,21.07
2022-12-26T20:19:36.023Z,14.53
2022-12-26T20:22:05.279Z,17.67
2022-12-26T20:24:34.382Z,15.90
2022-12-26T20:27:03.872Z,10.27
2022-12-26T20:29:34.012Z,16.33
2022-12-26T20:32:02.665Z,11.00
2022-12-26T20:34:31.393Z,19.40
2022-12-26T20:37:00.098Z,11.73
2022-12-26T20:39:28.834Z,10.13
2022-12-26T20:41:57.506Z,12.63
2022-12-26T20:44:26.385Z,19.13
2022-12-26T20:46:56.442Z,10.00
2022-12-26T20:49:25.082Z,13.93
2022-12-26T20:51:53.676Z,9.87
2022-12-26T20:54:22.744Z,19.40
2022-12-26T20:56:51.300Z,11.83
2022-12-26T20:59:20.453Z,12.93
2022-12-26T21:01:49.128Z,12.90
2022-12-26T21:04:22.124Z,15.40
2022-12-26T21:06:51.307Z,11.20
2022-12-26T21:09:19.928Z,13.53
2022-12-26T21:11:48.550Z,10.40
2022-12-26T21:14:18.863Z,12.43
2022-12-26T21:16:49.975Z,20.50
2022-12-26T21:19:21.010Z,14.73
2022-12-26T21:21:52.347Z,11.97
2022-12-26T21:24:24.863Z,18.30
2022-12-26T21:26:54.070Z,12.90
2022-12-26T21:29:24.970Z,25.20
2022-12-26T21:31:53.774Z,16.50
2022-12-26T21:34:26.115Z,13.73
2022-12-26T21:37:13.536Z,18.07
2022-12-26T21:39:42.554Z,22.50
2022-12-26T21:42:11.709Z,17.70
2022-12-26T21:44:40.604Z,13.97
2022-12-26T21:47:09.461Z,16.17
2022-12-26T21:49:39.441Z,15.10
2022-12-26T21:52:08.991Z,13.33
2022-12-26T21:54:55.071Z,20.73
2022-12-26T21:57:24.105Z,16.90
2022-12-26T21:59:59.502Z,13.37
2022-12-26T22:02:47.956Z,14.37
2022-12-26T22:05:19.699Z,12.33
2022-12-26T22:07:48.741Z,22.10
2022-12-26T22:10:31.347Z,13.57
2022-12-26T22:13:00.726Z,19.87
2022-12-26T22:15:46.965Z,27.90
2022-12-26T22:18:15.832Z,12.77
2022-12-26T22:20:46.216Z,19.57
2022-12-26T22:23:15.236Z,17.20
2022-12-26T22:25:44.234Z,17.77
2022-12-26T22:28:12.909Z,13.10
2022-12-26T22:30:48.537Z,16.57
2022-12-26T22:33:17.421Z,17.17
2022-12-26T22:35:49.030Z,19.80
2022-12-26T22:38:18.081Z,12.20
2022-12-26T22:40:55.208Z,16.57
2022-12-26T22:43:24.773Z,20.10
2022-12-26T22:45:53.775Z,10.60
2022-12-26T22:48:23.629Z,18.70
2022-12-26T22:50:55.949Z,20.90
2022-12-26T22:53:25.898Z,17.63
2022-12-26T22:55:59.027Z,16.90
2022-12-26T22:58:28.438Z,17.37
2022-12-26T23:00:57.729Z,18.27
2022-12-26T23:03:28.182Z,21.70
2022-12-26T23:05:59.243Z,10.00
2022-12-26T23:08:29.470Z,18.40
2022-12-26T23:11:00.911Z,15.90
2022-12-26T23:13:30.859Z,16.77
2022-12-26T23:16:04.883Z,11.27
2022-12-26T23:18:56.505Z,17.27
2022-12-26T23:21:43.070Z,20.40
2022-12-26T23:24:17.457Z,20.03
2022-12-26T23:26:48.739Z,23.07
2022-12-26T23:29:37.077Z,16.13
2022-12-26T23:32:06.692Z,12.43
2022-12-26T23:34:35.432Z,23.60
2022-12-26T23:37:05.477Z,21.20
2022-12-26T23:39:34.086Z,20.93
2022-12-26T23:42:02.681Z,9.80
2022-12-26T23:44:32.306Z,22.33
2022-12-26T23:47:01.021Z,17.50
2022-12-26T23:49:31.317Z,13.83
2022-12-26T23:52:00.043Z,13.27
2022-12-26T23:54:30.046Z,13.93
2022-12-26T23:56:58.750Z,11.17
2022-12-26T23:59:27.558Z,14.70
